Terminal Aerodrome Forecast
Issued by NWS Nashville, TN

Home | Current Version | Previous Version | Text Only | Print | Product List | Glossary On
Versions: 1 2 3 4 5 6 7 8 9 10 11 12 13 14 15 16 17 18 19 20 21 22 23 24 25 26 27 28 29 30 31 32 33
000
FTUS44 KOHX 180500
TAFCSV
TAF
KCSV 180520Z 1806/1906 00000KT P6SM BKN100 BKN200
     FM180800 00000KT 4SM BR BKN100 BKN200
     FM181000 00000KT 2SM BR BKN060 BKN200
     FM181400 03004KT P6SM SCT060 SCT200
     FM190100 00000KT P6SM SKC=

USA.gov is the U.S. government's official web portal to all federal, state and local government web resources and services.